Hauptseite
METAR-TAF:

METAR-TAF

Flughäfen :

Heeresflugplatz Celle

Celle, Deutschland

Breite: 52-36N, Länge: 010-01E, Höhe: 39 m

Beobachtung

Neuester Wetterbericht von vor 37 Minuten, um 20:20 UTC
Wind 3 kt aus West/Südwest
Temperatur 7°C
Luftfeuchtigkeit 57%
Luftdruck 1018 hPa
Sichtweite 10 km oder mehr

METAR: ETHC 032020Z AUTO 24003KT 9999 // ////// 07/M01 Q1018 ///

Zeit: 22:57 (20:57 UTC)

Prognose

Neuester Wetterbericht von vor 11 Stunden und 32 Minuten, um 09:25 UTC
Gültige Prognose vom 03 um 08 UTC bis 03 um 17 UTC
Wind 10 kt aus West
Sichtweite 10 km oder mehr
Aufgelockert bewölkt in der Höhe von 4000 ft
Zeitweise
vom 03 um 10 UTC bis 03 um 16 UTC
Wind 12 kt aus West, Böen bis zu 22 kt
Sichtweite: 1000 m
Durchbrochene Bewölkung in der Höhe von 2500 ft, Kumulonimbus.
Regenschauer

TAF: ETHC 030925Z 0308/0317 27010KT 9999 NSW SCT040 TEMPO 0310/0316 27012G22KT 8000 -SHRA BKN025CB CANCEL 1000

Wetterbeobachtungen und Prognosen von mehr als 4000 Flughäfen (METAR und TAF Bericht).

Die verfügbaren Stationen werden durch gelbe und rote Markierungen auf der Karte dargestellt.

Führen Sie die Maus auf sie, um den Namen der Station zu sehen.

Darauf klicken, um die Beobachtung von Wetterbeobachtungen und Prognosen zu sehen.

Um die Karte zu ändern : klicken Sie auf den grünen Tasten mit einem schwarzen Kreuz Zum Vergrößern, auf den grünen Button mit einem Gedankenstrich zu verkleinern, oder auf die grünen Pfeile für benachbarte Karten.


METAR-TAF: